sensor_id;sensor_type;location;lat;lon;timestamp;P1;durP1;ratioP1;P2;durP2;ratioP2
44137;SDS011;29800;55.942;37.314;2023-08-07T00:01:10;8.93;;;4.70;;
44137;SDS011;29800;55.942;37.314;2023-08-07T00:03:36;10.13;;;4.53;;
44137;SDS011;29800;55.942;37.314;2023-08-07T00:06:02;11.32;;;4.85;;
44137;SDS011;29800;55.942;37.314;2023-08-07T00:08:29;9.23;;;4.57;;
44137;SDS011;29800;55.942;37.314;2023-08-07T00:11:09;9.82;;;4.47;;
44137;SDS011;29800;55.942;37.314;2023-08-07T00:13:36;9.27;;;4.38;;
44137;SDS011;29800;55.942;37.314;2023-08-07T00:16:03;9.80;;;4.28;;
44137;SDS011;29800;55.942;37.314;2023-08-07T00:18:29;8.85;;;4.13;;
44137;SDS011;29800;55.942;37.314;2023-08-07T00:20:56;11.35;;;4.32;;
44137;SDS011;29800;55.942;37.314;2023-08-07T00:23:22;9.48;;;4.50;;
44137;SDS011;29800;55.942;37.314;2023-08-07T00:25:48;7.10;;;3.95;;
44137;SDS011;29800;55.942;37.314;2023-08-07T00:28:15;12.07;;;4.57;;
44137;SDS011;29800;55.942;37.314;2023-08-07T00:30:41;12.65;;;4.38;;
44137;SDS011;29800;55.942;37.314;2023-08-07T00:33:07;8.50;;;4.50;;
44137;SDS011;29800;55.942;37.314;2023-08-07T00:35:34;7.05;;;3.92;;
44137;SDS011;29800;55.942;37.314;2023-08-07T00:38:01;10.80;;;3.95;;
44137;SDS011;29800;55.942;37.314;2023-08-07T00:40:35;9.00;;;4.03;;
44137;SDS011;29800;55.942;37.314;2023-08-07T00:43:02;7.90;;;4.03;;
44137;SDS011;29800;55.942;37.314;2023-08-07T00:45:28;5.45;;;3.50;;
44137;SDS011;29800;55.942;37.314;2023-08-07T00:47:55;8.52;;;4.10;;
44137;SDS011;29800;55.942;37.314;2023-08-07T00:50:21;6.35;;;3.55;;
44137;SDS011;29800;55.942;37.314;2023-08-07T00:52:48;10.32;;;3.88;;
44137;SDS011;29800;55.942;37.314;2023-08-07T00:55:14;12.73;;;4.25;;
44137;SDS011;29800;55.942;37.314;2023-08-07T00:57:40;10.02;;;4.05;;
44137;SDS011;29800;55.942;37.314;2023-08-07T01:00:07;11.73;;;4.40;;
44137;SDS011;29800;55.942;37.314;2023-08-07T01:02:34;8.05;;;4.07;;
44137;SDS011;29800;55.942;37.314;2023-08-07T01:05:00;9.88;;;4.03;;
44137;SDS011;29800;55.942;37.314;2023-08-07T01:07:29;9.18;;;4.13;;
44137;SDS011;29800;55.942;37.314;2023-08-07T01:09:57;6.70;;;4.20;;
44137;SDS011;29800;55.942;37.314;2023-08-07T01:12:30;6.13;;;3.72;;
44137;SDS011;29800;55.942;37.314;2023-08-07T01:15:18;10.07;;;4.20;;
44137;SDS011;29800;55.942;37.314;2023-08-07T01:17:51;11.70;;;3.85;;
44137;SDS011;29800;55.942;37.314;2023-08-07T01:20:19;10.88;;;4.20;;
44137;SDS011;29800;55.942;37.314;2023-08-07T01:22:46;6.25;;;4.00;;
44137;SDS011;29800;55.942;37.314;2023-08-07T01:25:12;8.05;;;3.95;;
44137;SDS011;29800;55.942;37.314;2023-08-07T01:27:44;7.78;;;4.05;;
44137;SDS011;29800;55.942;37.314;2023-08-07T01:30:38;6.47;;;4.38;;
44137;SDS011;29800;55.942;37.314;2023-08-07T01:33:27;8.60;;;3.78;;
44137;SDS011;29800;55.942;37.314;2023-08-07T01:36:01;9.98;;;4.15;;
44137;SDS011;29800;55.942;37.314;2023-08-07T01:38:32;6.70;;;4.00;;
44137;SDS011;29800;55.942;37.314;2023-08-07T01:41:00;8.75;;;4.20;;
44137;SDS011;29800;55.942;37.314;2023-08-07T01:43:27;7.60;;;3.90;;
44137;SDS011;29800;55.942;37.314;2023-08-07T01:45:54;9.73;;;3.97;;
44137;SDS011;29800;55.942;37.314;2023-08-07T01:48:20;6.13;;;3.75;;
44137;SDS011;29800;55.942;37.314;2023-08-07T01:50:47;6.13;;;3.90;;
44137;SDS011;29800;55.942;37.314;2023-08-07T01:53:13;7.78;;;3.90;;
44137;SDS011;29800;55.942;37.314;2023-08-07T01:55:40;6.40;;;3.85;;
44137;SDS011;29800;55.942;37.314;2023-08-07T01:58:06;7.40;;;3.90;;
44137;SDS011;29800;55.942;37.314;2023-08-07T02:00:32;7.35;;;4.00;;
44137;SDS011;29800;55.942;37.314;2023-08-07T02:02:58;8.90;;;4.28;;
44137;SDS011;29800;55.942;37.314;2023-08-07T02:05:26;6.95;;;4.07;;
44137;SDS011;29800;55.942;37.314;2023-08-07T02:07:52;6.10;;;3.88;;
44137;SDS011;29800;55.942;37.314;2023-08-07T02:10:22;6.20;;;3.90;;
44137;SDS011;29800;55.942;37.314;2023-08-07T02:12:49;7.88;;;4.07;;
44137;SDS011;29800;55.942;37.314;2023-08-07T02:15:15;6.75;;;4.32;;
44137;SDS011;29800;55.942;37.314;2023-08-07T02:17:42;7.57;;;4.30;;
44137;SDS011;29800;55.942;37.314;2023-08-07T02:20:08;8.18;;;3.97;;
44137;SDS011;29800;55.942;37.314;2023-08-07T02:22:35;7.15;;;3.88;;
44137;SDS011;29800;55.942;37.314;2023-08-07T02:25:02;13.68;;;4.30;;
44137;SDS011;29800;55.942;37.314;2023-08-07T02:27:30;8.32;;;4.53;;
44137;SDS011;29800;55.942;37.314;2023-08-07T02:29:57;13.90;;;4.25;;
44137;SDS011;29800;55.942;37.314;2023-08-07T02:32:23;7.45;;;4.20;;
44137;SDS011;29800;55.942;37.314;2023-08-07T02:34:49;6.07;;;3.88;;
44137;SDS011;29800;55.942;37.314;2023-08-07T02:37:16;7.88;;;4.20;;
44137;SDS011;29800;55.942;37.314;2023-08-07T02:39:43;8.50;;;4.03;;
44137;SDS011;29800;55.942;37.314;2023-08-07T02:42:09;5.60;;;4.10;;
44137;SDS011;29800;55.942;37.314;2023-08-07T02:44:36;6.82;;;3.97;;
44137;SDS011;29800;55.942;37.314;2023-08-07T02:47:02;6.57;;;3.80;;
44137;SDS011;29800;55.942;37.314;2023-08-07T02:49:29;6.60;;;4.25;;
44137;SDS011;29800;55.942;37.314;2023-08-07T02:51:55;11.07;;;4.40;;
44137;SDS011;29800;55.942;37.314;2023-08-07T02:54:22;7.20;;;4.47;;
44137;SDS011;29800;55.942;37.314;2023-08-07T02:56:48;9.20;;;4.20;;
44137;SDS011;29800;55.942;37.314;2023-08-07T02:59:15;9.82;;;4.40;;
44137;SDS011;29800;55.942;37.314;2023-08-07T03:01:42;10.45;;;4.63;;
44137;SDS011;29800;55.942;37.314;2023-08-07T03:04:09;7.65;;;4.43;;
44137;SDS011;29800;55.942;37.314;2023-08-07T03:06:36;10.45;;;4.68;;
44137;SDS011;29800;55.942;37.314;2023-08-07T03:09:02;6.82;;;4.50;;
44137;SDS011;29800;55.942;37.314;2023-08-07T03:11:29;9.05;;;4.05;;
44137;SDS011;29800;55.942;37.314;2023-08-07T03:13:55;9.20;;;4.30;;
44137;SDS011;29800;55.942;37.314;2023-08-07T03:16:22;6.50;;;4.45;;
44137;SDS011;29800;55.942;37.314;2023-08-07T03:18:48;8.68;;;4.25;;
44137;SDS011;29800;55.942;37.314;2023-08-07T03:21:15;8.95;;;3.90;;
44137;SDS011;29800;55.942;37.314;2023-08-07T03:23:41;10.85;;;4.25;;
44137;SDS011;29800;55.942;37.314;2023-08-07T03:26:09;11.63;;;5.03;;
44137;SDS011;29800;55.942;37.314;2023-08-07T03:28:38;8.48;;;4.40;;
44137;SDS011;29800;55.942;37.314;2023-08-07T03:31:05;10.30;;;5.00;;
44137;SDS011;29800;55.942;37.314;2023-08-07T03:33:34;9.02;;;4.55;;
44137;SDS011;29800;55.942;37.314;2023-08-07T03:36:01;6.32;;;3.92;;
44137;SDS011;29800;55.942;37.314;2023-08-07T03:38:28;8.45;;;4.43;;
44137;SDS011;29800;55.942;37.314;2023-08-07T03:40:56;11.88;;;4.22;;
44137;SDS011;29800;55.942;37.314;2023-08-07T03:43:22;8.65;;;4.40;;
44137;SDS011;29800;55.942;37.314;2023-08-07T03:45:53;8.93;;;4.22;;
44137;SDS011;29800;55.942;37.314;2023-08-07T03:48:22;10.55;;;4.60;;
44137;SDS011;29800;55.942;37.314;2023-08-07T03:50:49;8.73;;;4.18;;
44137;SDS011;29800;55.942;37.314;2023-08-07T03:53:18;9.95;;;4.53;;
44137;SDS011;29800;55.942;37.314;2023-08-07T03:55:50;8.63;;;5.00;;
44137;SDS011;29800;55.942;37.314;2023-08-07T03:58:20;7.32;;;4.10;;
44137;SDS011;29800;55.942;37.314;2023-08-07T04:00:46;9.82;;;4.22;;
44137;SDS011;29800;55.942;37.314;2023-08-07T04:03:12;7.80;;;4.38;;
44137;SDS011;29800;55.942;37.314;2023-08-07T04:05:38;9.05;;;4.75;;
44137;SDS011;29800;55.942;37.314;2023-08-07T04:08:06;8.77;;;4.55;;
44137;SDS011;29800;55.942;37.314;2023-08-07T04:10:33;8.73;;;4.40;;
44137;SDS011;29800;55.942;37.314;2023-08-07T04:13:00;9.35;;;3.80;;
44137;SDS011;29800;55.942;37.314;2023-08-07T04:15:26;7.35;;;4.00;;
44137;SDS011;29800;55.942;37.314;2023-08-07T04:17:54;6.47;;;3.70;;
44137;SDS011;29800;55.942;37.314;2023-08-07T04:20:20;6.38;;;3.70;;
44137;SDS011;29800;55.942;37.314;2023-08-07T04:22:47;7.13;;;4.10;;
44137;SDS011;29800;55.942;37.314;2023-08-07T04:25:13;7.25;;;3.72;;
44137;SDS011;29800;55.942;37.314;2023-08-07T04:27:40;7.00;;;3.65;;
44137;SDS011;29800;55.942;37.314;2023-08-07T04:30:06;7.25;;;3.38;;
44137;SDS011;29800;55.942;37.314;2023-08-07T04:32:33;9.90;;;4.03;;
44137;SDS011;29800;55.942;37.314;2023-08-07T04:34:59;7.97;;;3.80;;
44137;SDS011;29800;55.942;37.314;2023-08-07T04:37:29;7.47;;;3.80;;
44137;SDS011;29800;55.942;37.314;2023-08-07T04:39:56;10.95;;;3.65;;
44137;SDS011;29800;55.942;37.314;2023-08-07T04:42:22;13.57;;;4.20;;
44137;SDS011;29800;55.942;37.314;2023-08-07T04:44:49;7.30;;;3.60;;
44137;SDS011;29800;55.942;37.314;2023-08-07T04:47:15;8.98;;;3.47;;
44137;SDS011;29800;55.942;37.314;2023-08-07T04:49:41;9.60;;;3.83;;
44137;SDS011;29800;55.942;37.314;2023-08-07T04:52:08;10.40;;;3.83;;
44137;SDS011;29800;55.942;37.314;2023-08-07T04:54:34;13.80;;;3.70;;
44137;SDS011;29800;55.942;37.314;2023-08-07T04:57:00;15.30;;;3.45;;
44137;SDS011;29800;55.942;37.314;2023-08-07T04:59:26;9.15;;;3.08;;
44137;SDS011;29800;55.942;37.314;2023-08-07T05:01:55;8.82;;;3.63;;
44137;SDS011;29800;55.942;37.314;2023-08-07T05:04:21;12.43;;;3.50;;
44137;SDS011;29800;55.942;37.314;2023-08-07T05:06:48;11.20;;;3.20;;
44137;SDS011;29800;55.942;37.314;2023-08-07T05:09:14;9.38;;;3.25;;
44137;SDS011;29800;55.942;37.314;2023-08-07T05:11:40;6.93;;;2.85;;
44137;SDS011;29800;55.942;37.314;2023-08-07T05:14:07;9.55;;;3.40;;
44137;SDS011;29800;55.942;37.314;2023-08-07T05:16:33;7.25;;;3.33;;
44137;SDS011;29800;55.942;37.314;2023-08-07T05:18:59;9.05;;;2.75;;
44137;SDS011;29800;55.942;37.314;2023-08-07T05:21:25;7.22;;;3.08;;
44137;SDS011;29800;55.942;37.314;2023-08-07T05:23:52;9.23;;;2.72;;
44137;SDS011;29800;55.942;37.314;2023-08-07T05:26:21;4.65;;;2.80;;
44137;SDS011;29800;55.942;37.314;2023-08-07T05:28:47;5.72;;;2.65;;
44137;SDS011;29800;55.942;37.314;2023-08-07T05:31:13;7.78;;;2.78;;
44137;SDS011;29800;55.942;37.314;2023-08-07T05:33:40;9.38;;;2.55;;
44137;SDS011;29800;55.942;37.314;2023-08-07T05:36:06;5.20;;;2.65;;
44137;SDS011;29800;55.942;37.314;2023-08-07T05:38:32;8.40;;;2.60;;
44137;SDS011;29800;55.942;37.314;2023-08-07T05:40:58;7.00;;;2.60;;
44137;SDS011;29800;55.942;37.314;2023-08-07T05:43:24;6.40;;;2.63;;
44137;SDS011;29800;55.942;37.314;2023-08-07T05:45:51;4.80;;;2.22;;
44137;SDS011;29800;55.942;37.314;2023-08-07T05:48:17;6.72;;;2.30;;
44137;SDS011;29800;55.942;37.314;2023-08-07T05:50:43;5.95;;;2.58;;
44137;SDS011;29800;55.942;37.314;2023-08-07T05:53:09;9.27;;;2.58;;
44137;SDS011;29800;55.942;37.314;2023-08-07T05:55:38;5.78;;;2.30;;
44137;SDS011;29800;55.942;37.314;2023-08-07T05:58:06;7.50;;;2.95;;
44137;SDS011;29800;55.942;37.314;2023-08-07T06:00:33;6.97;;;2.42;;
44137;SDS011;29800;55.942;37.314;2023-08-07T06:02:59;8.20;;;2.60;;
44137;SDS011;29800;55.942;37.314;2023-08-07T06:05:25;7.25;;;2.53;;
44137;SDS011;29800;55.942;37.314;2023-08-07T06:07:52;6.53;;;2.25;;
44137;SDS011;29800;55.942;37.314;2023-08-07T06:10:19;7.60;;;2.05;;
44137;SDS011;29800;55.942;37.314;2023-08-07T06:12:46;8.70;;;2.20;;
44137;SDS011;29800;55.942;37.314;2023-08-07T06:15:12;5.88;;;2.30;;
44137;SDS011;29800;55.942;37.314;2023-08-07T06:17:39;9.30;;;2.30;;
44137;SDS011;29800;55.942;37.314;2023-08-07T06:20:07;5.85;;;2.13;;
44137;SDS011;29800;55.942;37.314;2023-08-07T06:22:35;5.68;;;2.25;;
44137;SDS011;29800;55.942;37.314;2023-08-07T06:25:01;6.35;;;2.10;;
44137;SDS011;29800;55.942;37.314;2023-08-07T06:27:29;6.35;;;2.22;;
44137;SDS011;29800;55.942;37.314;2023-08-07T06:29:56;9.88;;;2.38;;
44137;SDS011;29800;55.942;37.314;2023-08-07T06:32:24;8.18;;;2.20;;
44137;SDS011;29800;55.942;37.314;2023-08-07T06:34:51;5.38;;;2.40;;
44137;SDS011;29800;55.942;37.314;2023-08-07T06:37:17;10.80;;;2.40;;
44137;SDS011;29800;55.942;37.314;2023-08-07T06:39:44;7.57;;;2.40;;
44137;SDS011;29800;55.942;37.314;2023-08-07T06:42:12;13.80;;;2.70;;
44137;SDS011;29800;55.942;37.314;2023-08-07T06:44:41;9.45;;;2.40;;
44137;SDS011;29800;55.942;37.314;2023-08-07T06:47:08;7.93;;;3.13;;
44137;SDS011;29800;55.942;37.314;2023-08-07T06:49:35;9.73;;;2.72;;
44137;SDS011;29800;55.942;37.314;2023-08-07T06:52:02;17.17;;;2.60;;
44137;SDS011;29800;55.942;37.314;2023-08-07T06:54:29;8.77;;;2.60;;
44137;SDS011;29800;55.942;37.314;2023-08-07T06:56:55;10.15;;;2.60;;
44137;SDS011;29800;55.942;37.314;2023-08-07T06:59:21;5.00;;;2.08;;
44137;SDS011;29800;55.942;37.314;2023-08-07T07:01:49;4.47;;;2.30;;
44137;SDS011;29800;55.942;37.314;2023-08-07T07:04:15;5.78;;;2.00;;
44137;SDS011;29800;55.942;37.314;2023-08-07T07:06:42;9.63;;;2.10;;
44137;SDS011;29800;55.942;37.314;2023-08-07T07:09:08;8.07;;;2.15;;
44137;SDS011;29800;55.942;37.314;2023-08-07T07:11:34;8.23;;;2.00;;
44137;SDS011;29800;55.942;37.314;2023-08-07T07:14:00;3.95;;;2.00;;
44137;SDS011;29800;55.942;37.314;2023-08-07T07:16:27;3.97;;;1.77;;
44137;SDS011;29800;55.942;37.314;2023-08-07T07:18:56;4.43;;;1.80;;
44137;SDS011;29800;55.942;37.314;2023-08-07T07:21:23;5.97;;;1.90;;
44137;SDS011;29800;55.942;37.314;2023-08-07T07:23:50;10.23;;;1.77;;
44137;SDS011;29800;55.942;37.314;2023-08-07T07:26:16;6.88;;;1.80;;
44137;SDS011;29800;55.942;37.314;2023-08-07T07:28:42;4.18;;;1.65;;
44137;SDS011;29800;55.942;37.314;2023-08-07T07:31:09;6.78;;;1.98;;
44137;SDS011;29800;55.942;37.314;2023-08-07T07:33:37;4.75;;;1.70;;
44137;SDS011;29800;55.942;37.314;2023-08-07T07:36:05;5.20;;;1.90;;
44137;SDS011;29800;55.942;37.314;2023-08-07T07:38:32;7.07;;;1.98;;
44137;SDS011;29800;55.942;37.314;2023-08-07T07:41:01;7.00;;;2.15;;
44137;SDS011;29800;55.942;37.314;2023-08-07T07:43:27;6.95;;;1.90;;
44137;SDS011;29800;55.942;37.314;2023-08-07T07:45:55;6.40;;;2.15;;
44137;SDS011;29800;55.942;37.314;2023-08-07T07:48:21;6.32;;;1.90;;
44137;SDS011;29800;55.942;37.314;2023-08-07T07:50:47;6.63;;;2.03;;
44137;SDS011;29800;55.942;37.314;2023-08-07T07:53:14;9.80;;;2.25;;
44137;SDS011;29800;55.942;37.314;2023-08-07T07:55:40;12.93;;;2.10;;
44137;SDS011;29800;55.942;37.314;2023-08-07T07:58:06;5.88;;;2.00;;
44137;SDS011;29800;55.942;37.314;2023-08-07T08:00:32;5.00;;;2.00;;
44137;SDS011;29800;55.942;37.314;2023-08-07T08:03:03;6.82;;;2.00;;
44137;SDS011;29800;55.942;37.314;2023-08-07T08:05:29;5.88;;;1.80;;
44137;SDS011;29800;55.942;37.314;2023-08-07T08:07:55;8.90;;;1.80;;
44137;SDS011;29800;55.942;37.314;2023-08-07T08:10:22;7.65;;;1.80;;
44137;SDS011;29800;55.942;37.314;2023-08-07T08:12:48;3.50;;;1.60;;
44137;SDS011;29800;55.942;37.314;2023-08-07T08:15:14;8.98;;;1.75;;
44137;SDS011;29800;55.942;37.314;2023-08-07T08:17:40;5.53;;;1.80;;
44137;SDS011;29800;55.942;37.314;2023-08-07T08:20:07;2.83;;;1.67;;
44137;SDS011;29800;55.942;37.314;2023-08-07T08:22:34;8.13;;;1.80;;
44137;SDS011;29800;55.942;37.314;2023-08-07T08:25:01;5.07;;;1.80;;
44137;SDS011;29800;55.942;37.314;2023-08-07T08:27:29;6.60;;;1.75;;
44137;SDS011;29800;55.942;37.314;2023-08-07T08:29:56;3.67;;;1.80;;
44137;SDS011;29800;55.942;37.314;2023-08-07T08:32:22;9.95;;;2.05;;
44137;SDS011;29800;55.942;37.314;2023-08-07T08:34:49;3.92;;;1.73;;
44137;SDS011;29800;55.942;37.314;2023-08-07T08:37:15;10.20;;;2.03;;
44137;SDS011;29800;55.942;37.314;2023-08-07T08:39:41;5.93;;;1.90;;
44137;SDS011;29800;55.942;37.314;2023-08-07T08:42:08;6.43;;;2.10;;
44137;SDS011;29800;55.942;37.314;2023-08-07T08:44:40;8.52;;;2.10;;
44137;SDS011;29800;55.942;37.314;2023-08-07T08:47:10;10.27;;;2.13;;
44137;SDS011;29800;55.942;37.314;2023-08-07T08:49:41;8.75;;;1.77;;
44137;SDS011;29800;55.942;37.314;2023-08-07T08:52:12;5.13;;;1.77;;
44137;SDS011;29800;55.942;37.314;2023-08-07T08:54:42;5.82;;;2.20;;
44137;SDS011;29800;55.942;37.314;2023-08-07T08:57:09;7.32;;;1.92;;
44137;SDS011;29800;55.942;37.314;2023-08-07T08:59:37;6.07;;;1.90;;
44137;SDS011;29800;55.942;37.314;2023-08-07T09:02:04;13.98;;;1.98;;
44137;SDS011;29800;55.942;37.314;2023-08-07T09:04:30;5.40;;;2.13;;
44137;SDS011;29800;55.942;37.314;2023-08-07T09:06:58;4.75;;;2.05;;
44137;SDS011;29800;55.942;37.314;2023-08-07T09:09:25;4.43;;;1.60;;
44137;SDS011;29800;55.942;37.314;2023-08-07T09:11:53;6.13;;;1.98;;
44137;SDS011;29800;55.942;37.314;2023-08-07T09:14:24;5.22;;;1.80;;
44137;SDS011;29800;55.942;37.314;2023-08-07T09:16:56;18.95;;;2.00;;
44137;SDS011;29800;55.942;37.314;2023-08-07T09:19:26;6.20;;;2.10;;
44137;SDS011;29800;55.942;37.314;2023-08-07T09:21:53;7.82;;;1.90;;
44137;SDS011;29800;55.942;37.314;2023-08-07T09:24:19;5.03;;;1.85;;
44137;SDS011;29800;55.942;37.314;2023-08-07T09:26:47;10.70;;;1.80;;
44137;SDS011;29800;55.942;37.314;2023-08-07T09:29:16;5.75;;;1.90;;
44137;SDS011;29800;55.942;37.314;2023-08-07T09:31:45;9.45;;;1.98;;
44137;SDS011;29800;55.942;37.314;2023-08-07T09:34:12;4.10;;;2.00;;
44137;SDS011;29800;55.942;37.314;2023-08-07T09:36:40;6.60;;;2.00;;
44137;SDS011;29800;55.942;37.314;2023-08-07T09:39:07;4.32;;;1.70;;
44137;SDS011;29800;55.942;37.314;2023-08-07T09:41:33;5.90;;;2.15;;
44137;SDS011;29800;55.942;37.314;2023-08-07T09:44:05;6.82;;;1.60;;
44137;SDS011;29800;55.942;37.314;2023-08-07T09:46:40;4.05;;;1.70;;
44137;SDS011;29800;55.942;37.314;2023-08-07T09:51:53;5.57;;;1.80;;
44137;SDS011;29800;55.942;37.314;2023-08-07T09:54:20;6.72;;;1.75;;
44137;SDS011;29800;55.942;37.314;2023-08-07T09:56:46;10.52;;;2.33;;
44137;SDS011;29800;55.942;37.314;2023-08-07T09:59:13;6.10;;;1.80;;
44137;SDS011;29800;55.942;37.314;2023-08-07T10:01:39;8.18;;;1.83;;
44137;SDS011;29800;55.942;37.314;2023-08-07T10:04:09;6.25;;;1.77;;
44137;SDS011;29800;55.942;37.314;2023-08-07T10:06:42;4.70;;;1.73;;
44137;SDS011;29800;55.942;37.314;2023-08-07T10:09:09;4.80;;;1.70;;
44137;SDS011;29800;55.942;37.314;2023-08-07T10:11:35;6.15;;;2.00;;
44137;SDS011;29800;55.942;37.314;2023-08-07T10:14:03;5.15;;;1.90;;
44137;SDS011;29800;55.942;37.314;2023-08-07T10:16:30;8.43;;;1.80;;
44137;SDS011;29800;55.942;37.314;2023-08-07T10:18:58;3.80;;;1.83;;
44137;SDS011;29800;55.942;37.314;2023-08-07T10:21:24;4.63;;;1.83;;
44137;SDS011;29800;55.942;37.314;2023-08-07T10:23:52;3.53;;;1.80;;
44137;SDS011;29800;55.942;37.314;2023-08-07T10:26:20;6.53;;;1.60;;
44137;SDS011;29800;55.942;37.314;2023-08-07T10:28:48;6.18;;;1.88;;
44137;SDS011;29800;55.942;37.314;2023-08-07T10:31:19;4.30;;;1.40;;
44137;SDS011;29800;55.942;37.314;2023-08-07T10:33:47;4.18;;;1.70;;
44137;SDS011;29800;55.942;37.314;2023-08-07T10:36:15;5.35;;;1.70;;
44137;SDS011;29800;55.942;37.314;2023-08-07T10:38:42;8.25;;;2.05;;
44137;SDS011;29800;55.942;37.314;2023-08-07T10:41:09;14.82;;;2.58;;
44137;SDS011;29800;55.942;37.314;2023-08-07T10:43:47;5.15;;;1.90;;
44137;SDS011;29800;55.942;37.314;2023-08-07T10:46:20;6.57;;;1.90;;
44137;SDS011;29800;55.942;37.314;2023-08-07T10:48:53;8.60;;;1.80;;
44137;SDS011;29800;55.942;37.314;2023-08-07T10:51:27;4.28;;;1.80;;
44137;SDS011;29800;55.942;37.314;2023-08-07T10:53:57;3.47;;;1.70;;
44137;SDS011;29800;55.942;37.314;2023-08-07T10:56:31;3.63;;;1.60;;
44137;SDS011;29800;55.942;37.314;2023-08-07T10:59:03;7.22;;;2.10;;
44137;SDS011;29800;55.942;37.314;2023-08-07T11:01:40;7.35;;;2.03;;
44137;SDS011;29800;55.942;37.314;2023-08-07T11:04:09;6.60;;;1.90;;
44137;SDS011;29800;55.942;37.314;2023-08-07T11:06:40;7.13;;;1.90;;
44137;SDS011;29800;55.942;37.314;2023-08-07T11:09:09;4.38;;;1.80;;
44137;SDS011;29800;55.942;37.314;2023-08-07T11:14:06;10.70;;;2.58;;
44137;SDS011;29800;55.942;37.314;2023-08-07T11:16:34;3.38;;;1.60;;
44137;SDS011;29800;55.942;37.314;2023-08-07T11:19:00;7.88;;;1.70;;
44137;SDS011;29800;55.942;37.314;2023-08-07T11:21:27;5.07;;;1.73;;
44137;SDS011;29800;55.942;37.314;2023-08-07T11:23:54;6.80;;;1.60;;
44137;SDS011;29800;55.942;37.314;2023-08-07T11:26:20;5.57;;;1.80;;
44137;SDS011;29800;55.942;37.314;2023-08-07T11:28:47;11.35;;;1.90;;
44137;SDS011;29800;55.942;37.314;2023-08-07T11:31:15;8.10;;;1.80;;
44137;SDS011;29800;55.942;37.314;2023-08-07T11:33:42;8.05;;;1.90;;
44137;SDS011;29800;55.942;37.314;2023-08-07T11:36:12;6.85;;;1.83;;
44137;SDS011;29800;55.942;37.314;2023-08-07T11:38:41;8.35;;;1.80;;
44137;SDS011;29800;55.942;37.314;2023-08-07T11:41:09;4.53;;;1.80;;
44137;SDS011;29800;55.942;37.314;2023-08-07T11:43:37;6.47;;;1.77;;
44137;SDS011;29800;55.942;37.314;2023-08-07T11:46:05;11.38;;;1.88;;
44137;SDS011;29800;55.942;37.314;2023-08-07T11:48:36;3.17;;;1.50;;
44137;SDS011;29800;55.942;37.314;2023-08-07T11:51:03;5.95;;;1.90;;
44137;SDS011;29800;55.942;37.314;2023-08-07T11:53:32;3.40;;;2.00;;
44137;SDS011;29800;55.942;37.314;2023-08-07T11:56:06;3.85;;;2.22;;
44137;SDS011;29800;55.942;37.314;2023-08-07T11:58:38;4.88;;;2.00;;
44137;SDS011;29800;55.942;37.314;2023-08-07T12:01:21;3.50;;;1.83;;
44137;SDS011;29800;55.942;37.314;2023-08-07T12:03:52;5.85;;;2.00;;
44137;SDS011;29800;55.942;37.314;2023-08-07T12:06:24;3.17;;;1.90;;
44137;SDS011;29800;55.942;37.314;2023-08-07T12:08:53;5.95;;;1.90;;
44137;SDS011;29800;55.942;37.314;2023-08-07T12:11:22;8.27;;;1.90;;
44137;SDS011;29800;55.942;37.314;2023-08-07T12:13:48;6.50;;;1.80;;
44137;SDS011;29800;55.942;37.314;2023-08-07T12:16:17;6.70;;;2.35;;
44137;SDS011;29800;55.942;37.314;2023-08-07T12:18:48;4.18;;;1.90;;
44137;SDS011;29800;55.942;37.314;2023-08-07T12:21:16;12.27;;;2.20;;
44137;SDS011;29800;55.942;37.314;2023-08-07T12:23:50;4.90;;;1.80;;
44137;SDS011;29800;55.942;37.314;2023-08-07T12:26:17;5.07;;;2.00;;
44137;SDS011;29800;55.942;37.314;2023-08-07T12:28:43;8.32;;;2.47;;
44137;SDS011;29800;55.942;37.314;2023-08-07T12:31:10;3.55;;;1.77;;
44137;SDS011;29800;55.942;37.314;2023-08-07T12:33:36;5.32;;;1.80;;
44137;SDS011;29800;55.942;37.314;2023-08-07T12:36:03;7.50;;;2.03;;
44137;SDS011;29800;55.942;37.314;2023-08-07T12:38:29;3.75;;;1.80;;
44137;SDS011;29800;55.942;37.314;2023-08-07T12:40:56;6.30;;;1.67;;
44137;SDS011;29800;55.942;37.314;2023-08-07T12:43:23;2.75;;;1.70;;
44137;SDS011;29800;55.942;37.314;2023-08-07T12:45:49;4.93;;;1.60;;
44137;SDS011;29800;55.942;37.314;2023-08-07T12:48:15;5.25;;;2.00;;
44137;SDS011;29800;55.942;37.314;2023-08-07T12:50:42;6.80;;;2.30;;
44137;SDS011;29800;55.942;37.314;2023-08-07T12:53:08;8.93;;;2.17;;
44137;SDS011;29800;55.942;37.314;2023-08-07T12:55:34;5.32;;;2.05;;
44137;SDS011;29800;55.942;37.314;2023-08-07T12:58:00;6.30;;;1.90;;
44137;SDS011;29800;55.942;37.314;2023-08-07T13:00:27;7.68;;;2.22;;
44137;SDS011;29800;55.942;37.314;2023-08-07T13:02:53;5.63;;;2.00;;
44137;SDS011;29800;55.942;37.314;2023-08-07T13:05:21;10.50;;;2.20;;
44137;SDS011;29800;55.942;37.314;2023-08-07T13:07:48;3.88;;;1.90;;
44137;SDS011;29800;55.942;37.314;2023-08-07T13:10:16;6.75;;;2.10;;
44137;SDS011;29800;55.942;37.314;2023-08-07T13:12:44;3.78;;;1.80;;
44137;SDS011;29800;55.942;37.314;2023-08-07T13:15:13;6.75;;;2.13;;
44137;SDS011;29800;55.942;37.314;2023-08-07T13:17:41;7.38;;;2.17;;
44137;SDS011;29800;55.942;37.314;2023-08-07T13:20:09;5.55;;;1.88;;
44137;SDS011;29800;55.942;37.314;2023-08-07T13:22:39;9.68;;;2.15;;
44137;SDS011;29800;55.942;37.314;2023-08-07T13:25:07;10.00;;;1.95;;
44137;SDS011;29800;55.942;37.314;2023-08-07T13:27:34;4.00;;;2.22;;
44137;SDS011;29800;55.942;37.314;2023-08-07T13:30:01;11.32;;;2.22;;
44137;SDS011;29800;55.942;37.314;2023-08-07T13:32:34;5.65;;;2.00;;
44137;SDS011;29800;55.942;37.314;2023-08-07T13:35:01;5.68;;;2.30;;
44137;SDS011;29800;55.942;37.314;2023-08-07T13:37:31;5.07;;;1.90;;
44137;SDS011;29800;55.942;37.314;2023-08-07T13:40:00;3.63;;;1.92;;
44137;SDS011;29800;55.942;37.314;2023-08-07T13:42:28;11.23;;;2.17;;
44137;SDS011;29800;55.942;37.314;2023-08-07T13:44:54;5.28;;;2.20;;
44137;SDS011;29800;55.942;37.314;2023-08-07T13:47:21;5.72;;;1.80;;
44137;SDS011;29800;55.942;37.314;2023-08-07T13:49:48;5.22;;;2.10;;
44137;SDS011;29800;55.942;37.314;2023-08-07T13:52:14;7.47;;;2.30;;
44137;SDS011;29800;55.942;37.314;2023-08-07T13:54:40;13.80;;;2.55;;
44137;SDS011;29800;55.942;37.314;2023-08-07T13:57:07;10.40;;;2.42;;
44137;SDS011;29800;55.942;37.314;2023-08-07T13:59:33;14.27;;;2.30;;
44137;SDS011;29800;55.942;37.314;2023-08-07T14:01:59;6.35;;;2.20;;
44137;SDS011;29800;55.942;37.314;2023-08-07T14:04:25;5.45;;;2.00;;
44137;SDS011;29800;55.942;37.314;2023-08-07T14:06:52;6.00;;;1.80;;
44137;SDS011;29800;55.942;37.314;2023-08-07T14:09:19;7.03;;;2.30;;
44137;SDS011;29800;55.942;37.314;2023-08-07T14:11:48;8.60;;;2.13;;
44137;SDS011;29800;55.942;37.314;2023-08-07T14:14:15;8.23;;;2.25;;
44137;SDS011;29800;55.942;37.314;2023-08-07T14:16:42;7.82;;;2.17;;
44137;SDS011;29800;55.942;37.314;2023-08-07T14:19:09;5.00;;;1.80;;
44137;SDS011;29800;55.942;37.314;2023-08-07T14:21:35;4.70;;;2.08;;
44137;SDS011;29800;55.942;37.314;2023-08-07T14:24:02;7.90;;;1.80;;
44137;SDS011;29800;55.942;37.314;2023-08-07T14:26:29;4.00;;;2.05;;
44137;SDS011;29800;55.942;37.314;2023-08-07T14:28:55;23.40;;;11.65;;
44137;SDS011;29800;55.942;37.314;2023-08-07T14:31:21;10.93;;;6.55;;
44137;SDS011;29800;55.942;37.314;2023-08-07T14:33:48;12.57;;;6.07;;
44137;SDS011;29800;55.942;37.314;2023-08-07T14:36:14;8.38;;;4.32;;
44137;SDS011;29800;55.942;37.314;2023-08-07T14:38:41;8.82;;;3.60;;
44137;SDS011;29800;55.942;37.314;2023-08-07T14:41:07;6.88;;;3.38;;